Time;durP1;ratioP1;P1;durP2;ratioP2;P2;SDS_P1;SDS_P2;PMS_P1;PMS_P2;Temp;Humidity;BMP_temperature;BMP_pressure;BME280_temperature;BME280_humidity;BME280_pressure;Samples;Min_cycle;Max_cycle;Signal;HPM_P1;HPM_P2
2022/04/16 00:00:21;;;;;;;23.17;14.57;;;8.70;99.90;;;;;;5153949;27;20513;-77
2022/04/16 00:02:46;;;;;;;;;;;8.70;99.90;;;;;;5154607;27;20034;-76
2022/04/16 00:05:13;;;;;;;24.27;15.20;;;8.60;99.90;;;;;;5153667;27;19942;-77
2022/04/16 00:07:39;;;;;;;23.35;15.05;;;8.60;99.90;;;;;;5135356;27;20053;-76
2022/04/16 00:10:06;;;;;;;24.25;15.38;;;8.50;99.90;;;;;;5133172;27;20394;-76
2022/04/16 00:12:32;;;;;;;21.23;14.88;;;8.50;99.90;;;;;;5120056;27;20042;-77
2022/04/16 00:14:58;;;;;;;23.52;14.35;;;8.40;99.90;;;;;;5136920;27;20038;-76
2022/04/16 00:17:24;;;;;;;21.65;15.48;;;8.30;99.90;;;;;;5133109;27;20130;-77
2022/04/16 00:19:49;;;;;;;25.43;15.27;;;8.30;99.90;;;;;;5133204;27;20050;-77
2022/04/16 00:22:15;;;;;;;21.23;15.17;;;8.30;99.90;;;;;;5113454;27;20288;-77
2022/04/16 00:24:42;;;;;;;21.80;14.87;;;8.20;99.90;;;;;;5132995;27;20658;-77
2022/04/16 00:27:10;;;;;;;;;;;8.10;99.90;;;;;;5133240;27;20292;-76
2022/04/16 00:29:37;;;;;;;26.15;15.88;;;8.10;99.90;;;;;;5151527;27;20301;-78
2022/04/16 00:32:05;;;;;;;24.08;16.35;;;8.10;99.90;;;;;;5132575;27;20043;-76
2022/04/16 00:34:34;;;;;;;24.15;14.88;;;8.00;99.90;;;;;;5129241;27;20079;-76
2022/04/16 00:36:59;;;;;;;23.13;15.80;;;8.00;99.90;;;;;;5129217;27;20133;-76
2022/04/16 00:39:26;;;;;;;24.17;15.38;;;7.90;99.90;;;;;;5129059;27;20074;-76
2022/04/16 00:41:51;;;;;;;21.80;14.85;;;7.90;99.90;;;;;;5093432;27;20398;-76
2022/04/16 00:44:21;;;;;;;25.15;16.23;;;7.90;99.90;;;;;;5128634;27;20043;-76
2022/04/16 00:46:47;;;;;;;25.85;16.13;;;7.80;99.90;;;;;;5129301;27;20043;-77
2022/04/16 00:49:13;;;;;;;25.02;16.20;;;7.80;99.90;;;;;;5128751;27;20047;-76
2022/04/16 00:51:41;;;;;;;24.15;15.50;;;7.80;99.90;;;;;;5124382;27;20050;-76
2022/04/16 00:54:07;;;;;;;26.98;16.42;;;7.80;99.90;;;;;;5128481;27;20051;-77
2022/04/16 00:56:33;;;;;;;26.27;15.80;;;7.90;99.90;;;;;;5106562;27;20138;-76
2022/04/16 00:59:01;;;;;;;21.87;15.27;;;7.80;99.90;;;;;;5128948;27;20043;-77
2022/04/16 01:01:26;;;;;;;28.55;15.32;;;7.90;99.90;;;;;;5128566;27;21144;-76
2022/04/16 01:03:52;;;;;;;28.50;16.00;;;7.90;99.90;;;;;;5129293;27;20453;-76
2022/04/16 01:06:18;;;;;;;23.65;15.57;;;7.80;99.90;;;;;;5111319;27;20171;-77
2022/04/16 01:08:45;;;;;;;25.92;16.33;;;7.80;99.90;;;;;;5129230;27;20042;-78
2022/04/16 01:11:11;;;;;;;;;;;7.80;99.90;;;;;;5111902;27;20034;-77
2022/04/16 01:13:37;;;;;;;29.35;17.45;;;7.70;99.90;;;;;;5109332;27;19915;-76
2022/04/16 01:16:05;;;;;;;28.55;18.20;;;7.70;99.90;;;;;;5128787;27;20038;-76
2022/04/16 01:18:32;;;;;;;27.00;16.98;;;7.60;99.90;;;;;;5128665;27;20494;-76
2022/04/16 01:20:59;;;;;;;25.92;16.33;;;7.60;99.90;;;;;;5129016;27;20395;-76
2022/04/16 01:23:25;;;;;;;26.42;16.48;;;7.50;99.90;;;;;;5128823;27;20410;-76
2022/04/16 01:25:51;;;;;;;26.30;17.00;;;7.60;99.90;;;;;;5111889;28;20061;-77
2022/04/16 01:28:16;;;;;;;27.77;16.33;;;7.40;99.90;;;;;;5111527;27;20035;-76
2022/04/16 01:30:42;;;;;;;24.53;16.37;;;7.40;99.90;;;;;;5125473;28;20035;-76
2022/04/16 01:33:08;;;;;;;27.65;16.17;;;7.40;99.90;;;;;;5128387;28;20342;-76
2022/04/16 01:35:34;;;;;;;28.05;16.77;;;7.40;99.90;;;;;;5128406;27;20486;-76
2022/04/16 01:38:03;;;;;;;27.75;16.98;;;7.40;99.90;;;;;;5128431;27;20074;-76
2022/04/16 01:40:29;;;;;;;26.92;17.23;;;7.30;99.90;;;;;;5128107;27;20046;-76
2022/04/16 01:42:56;;;;;;;26.40;17.45;;;7.30;99.90;;;;;;5128839;27;20043;-77
2022/04/16 01:45:23;;;;;;;29.30;17.73;;;7.30;99.90;;;;;;5109918;28;20394;-77
2022/04/16 01:47:50;;;;;;;29.20;18.45;;;7.20;99.90;;;;;;5128357;27;20076;-76
2022/04/16 01:50:16;;;;;;;29.60;17.92;;;7.20;99.90;;;;;;5127921;28;20118;-77
2022/04/16 01:52:42;;;;;;;29.52;18.20;;;7.20;99.90;;;;;;5128538;27;20035;-77
2022/04/16 01:55:09;;;;;;;28.10;18.98;;;7.20;99.90;;;;;;5128351;28;20081;-76
2022/04/16 01:57:35;;;;;;;31.58;19.50;;;7.20;99.90;;;;;;5094265;28;20050;-76
2022/04/16 02:00:03;;;;;;;30.52;18.33;;;7.20;99.90;;;;;;5127319;27;20537;-76
2022/04/16 02:02:29;;;;;;;32.35;19.45;;;7.10;99.90;;;;;;5128092;27;20436;-76
2022/04/16 02:04:55;;;;;;;30.93;19.40;;;7.50;99.90;;;;;;5113156;27;20130;-76
2022/04/16 02:07:20;;;;;;;33.37;19.57;;;7.10;99.90;;;;;;5131768;27;20647;-76
2022/04/16 02:09:46;;;;;;;33.83;20.43;;;7.30;99.90;;;;;;5098110;27;20486;-76
2022/04/16 02:12:13;;;;;;;29.53;19.37;;;7.10;99.90;;;;;;5131747;27;20045;-76
2022/04/16 02:14:38;;;;;;;29.77;19.73;;;7.10;99.90;;;;;;5132262;27;20333;-77
2022/04/16 02:17:04;;;;;;;29.60;19.65;;;7.10;99.90;;;;;;5111737;27;20474;-75
2022/04/16 02:19:34;;;;;;;30.00;18.98;;;7.00;99.90;;;;;;5131886;27;20540;-77
2022/04/16 02:22:00;;;;;;;31.88;18.60;;;7.00;99.90;;;;;;5127963;27;20126;-77
2022/04/16 02:24:27;;;;;;;35.40;20.40;;;7.00;99.90;;;;;;5133162;27;20160;-77
2022/04/16 02:26:55;;;;;;;34.22;20.45;;;7.10;99.90;;;;;;5131984;27;20047;-77
2022/04/16 02:29:21;;;;;;;32.25;20.42;;;7.00;99.90;;;;;;5131358;27;20045;-77
2022/04/16 02:31:47;;;;;;;34.65;20.83;;;7.00;99.90;;;;;;5131788;27;20127;-76
2022/04/16 02:34:13;;;;;;;30.98;20.45;;;6.90;99.90;;;;;;5112966;27;20059;-76
2022/04/16 02:36:40;;;;;;;35.50;21.52;;;6.90;99.90;;;;;;5131807;27;20043;-76
2022/04/16 02:39:06;;;;;;;;;;;6.90;99.90;;;;;;5132460;27;20043;-77
2022/04/16 02:41:31;;;;;;;35.28;21.30;;;6.90;99.90;;;;;;5131597;27;19922;-75
2022/04/16 02:44:00;;;;;;;34.63;21.33;;;6.90;99.90;;;;;;5132234;27;20130;-76
2022/04/16 02:49:12;;;;;;;36.22;21.15;;;7.00;99.90;;;;;;5128092;27;20047;-76
2022/04/16 02:51:38;;;;;;;30.77;19.52;;;7.00;99.90;;;;;;5131037;27;20047;-77
2022/04/16 02:54:05;;;;;;;36.55;20.65;;;7.10;99.90;;;;;;5131332;27;20399;-77
2022/04/16 02:56:31;;;;;;;34.90;19.90;;;7.20;99.90;;;;;;5130812;27;20039;-77
2022/04/16 02:58:57;;;;;;;34.47;21.33;;;7.30;99.90;;;;;;5114451;27;20113;-77
2022/04/16 03:01:23;;;;;;;31.97;20.10;;;7.40;99.90;;;;;;5113878;27;20553;-76
2022/04/16 03:03:48;;;;;;;33.73;20.30;;;7.50;99.90;;;;;;5131214;27;20349;-77
2022/04/16 03:06:14;;;;;;;32.57;19.83;;;7.50;99.90;;;;;;5127636;27;20289;-77
2022/04/16 03:08:40;;;;;;;32.38;19.58;;;7.60;99.90;;;;;;5130632;27;20038;-76
2022/04/16 03:11:05;;;;;;;31.37;18.97;;;7.50;99.90;;;;;;5114291;27;20035;-77
2022/04/16 03:13:34;;;;;;;33.80;19.30;;;7.60;99.90;;;;;;5113599;27;20379;-76
2022/04/16 03:18:48;;;;;;;;;;;7.70;99.90;;;;;;5131356;27;20041;-77
2022/04/16 03:21:14;;;;;;;30.02;19.75;;;7.80;99.90;;;;;;5111047;27;19916;-76
2022/04/16 03:23:40;;;;;;;29.92;19.77;;;7.80;99.90;;;;;;5130538;27;20031;-76
2022/04/16 03:26:06;;;;;;;33.35;20.80;;;7.90;99.90;;;;;;5130653;27;20043;-77
2022/04/16 03:28:32;;;;;;;31.08;20.08;;;8.20;99.90;;;;;;5125235;27;20067;-76
2022/04/16 03:30:58;;;;;;;35.90;21.48;;;7.90;99.90;;;;;;5128460;27;20572;-75
2022/04/16 03:33:24;;;;;;;;;;;8.00;99.90;;;;;;5130634;27;20488;-76
2022/04/16 03:35:51;;;;;;;36.55;23.35;;;8.00;99.90;;;;;;5130543;27;19919;-77
2022/04/16 03:38:18;;;;;;;34.55;21.70;;;8.00;99.90;;;;;;5130509;27;20070;-76
2022/04/16 03:40:44;;;;;;;32.47;21.20;;;8.10;99.90;;;;;;5113244;27;20028;-77
2022/04/16 03:43:10;;;;;;;32.50;20.50;;;8.00;99.90;;;;;;5123453;27;20088;-76
2022/04/16 03:45:37;;;;;;;34.30;21.90;;;8.10;99.90;;;;;;5092269;28;20039;-77
2022/04/16 03:48:05;;;;;;;35.95;23.00;;;8.10;99.90;;;;;;5109961;28;20053;-77
2022/04/16 03:50:31;;;;;;;36.00;22.42;;;8.10;99.90;;;;;;5109550;28;20039;-76
2022/04/16 03:52:58;;;;;;;36.25;22.63;;;8.30;99.90;;;;;;5109702;28;20044;-76
2022/04/16 04:00:56;;;;;;;37.10;22.88;;;8.10;99.90;;;;;;5109717;28;20092;-76
2022/04/16 04:03:22;;;;;;;36.10;23.40;;;8.10;99.90;;;;;;5074780;28;20051;-76
2022/04/16 04:05:49;;;;;;;;;;;8.10;99.90;;;;;;5124989;27;20066;-77
2022/04/16 04:08:16;;;;;;;45.08;26.00;;;8.10;99.90;;;;;;5092599;28;19922;-76
2022/04/16 04:10:42;;;;;;;41.38;26.33;;;8.00;99.90;;;;;;5108948;28;20123;-77
2022/04/16 04:13:08;;;;;;;39.67;25.17;;;8.00;99.90;;;;;;5114104;27;20176;-76
2022/04/16 04:15:34;;;;;;;42.67;25.20;;;8.00;99.90;;;;;;5129390;27;20553;-76
2022/04/16 04:18:01;;;;;;;43.13;25.00;;;8.00;99.90;;;;;;5129890;27;20505;-76
2022/04/16 04:20:30;;;;;;;42.55;26.00;;;8.00;99.90;;;;;;5111135;27;20040;-76
2022/04/16 04:22:56;;;;;;;45.95;27.23;;;7.90;99.90;;;;;;5109317;28;20055;-77
2022/04/16 04:25:22;;;;;;;45.63;26.65;;;7.80;99.90;;;;;;5106967;28;20028;-77
2022/04/16 04:27:47;;;;;;;41.22;26.08;;;7.90;99.90;;;;;;5108372;28;20044;-77
2022/04/16 04:30:13;;;;;;;46.13;26.60;;;7.80;99.90;;;;;;5092340;28;20039;-77
2022/04/16 04:32:39;;;;;;;41.75;25.65;;;7.90;99.90;;;;;;5108692;28;20111;-77
2022/04/16 04:35:06;;;;;;;42.72;26.38;;;7.80;99.90;;;;;;5116901;27;20043;-76
2022/04/16 04:37:32;;;;;;;43.45;25.83;;;7.80;99.90;;;;;;5112069;27;20035;-76
2022/04/16 04:39:58;;;;;;;43.45;27.15;;;7.80;99.90;;;;;;5129664;27;20080;-76
2022/04/16 04:42:25;;;;;;;41.33;26.40;;;7.80;99.90;;;;;;5129246;27;20051;-75
2022/04/16 04:44:51;;;;;;;44.42;26.88;;;7.90;99.90;;;;;;5129344;27;20273;-77
2022/04/16 04:47:17;;;;;;;41.65;26.40;;;7.80;99.90;;;;;;5129281;27;20129;-77
2022/04/16 04:49:43;;;;;;;43.33;25.53;;;7.80;99.90;;;;;;5111738;27;20118;-76
2022/04/16 04:52:09;;;;;;;40.78;24.50;;;7.80;99.90;;;;;;5127705;27;20448;-76
2022/04/16 04:54:34;;;;;;;40.75;25.27;;;7.80;99.90;;;;;;5128897;27;20390;-77
2022/04/16 04:57:02;;;;;;;41.30;26.03;;;7.90;99.90;;;;;;5129504;27;20039;-76
2022/04/16 04:59:28;;;;;;;42.78;25.35;;;7.80;99.90;;;;;;5111584;27;20035;-77
2022/04/16 05:01:53;;;;;;;44.17;26.37;;;7.80;99.90;;;;;;5129000;27;20046;-77
2022/04/16 05:04:19;;;;;;;44.15;25.70;;;7.80;99.90;;;;;;5128905;27;20042;-76
2022/04/16 05:06:45;;;;;;;42.03;25.57;;;7.70;99.90;;;;;;5129897;27;20677;-76
2022/04/16 05:09:11;;;;;;;43.33;26.00;;;7.80;99.90;;;;;;5078016;27;20592;-76
2022/04/16 05:11:37;;;;;;;44.58;26.27;;;7.80;99.90;;;;;;5123899;27;20152;-76
2022/04/16 05:14:03;;;;;;;40.53;24.83;;;8.10;99.90;;;;;;5127421;27;20129;-77
2022/04/16 05:16:28;;;;;;;40.50;24.63;;;7.80;99.90;;;;;;5128558;27;20042;-76
2022/04/16 05:18:54;;;;;;;41.97;24.13;;;7.80;99.90;;;;;;5128953;27;20175;-76
2022/04/16 05:21:20;;;;;;;39.17;23.20;;;7.80;99.90;;;;;;5128458;27;20036;-76
2022/04/16 05:23:46;;;;;;;38.72;23.20;;;7.90;99.90;;;;;;5129823;27;20035;-77
2022/04/16 05:26:12;;;;;;;39.70;22.52;;;7.90;99.90;;;;;;5128576;27;20074;-76
2022/04/16 05:28:38;;;;;;;38.67;23.00;;;7.90;99.90;;;;;;5126917;28;20483;-77
2022/04/16 05:31:04;;;;;;;;;;;7.90;99.90;;;;;;5119471;27;20039;-77
2022/04/16 05:36:15;;;;;;;32.70;20.45;;;7.90;99.90;;;;;;5128781;28;20391;-77
2022/04/16 05:38:40;;;;;;;32.25;19.35;;;8.00;99.90;;;;;;5128596;27;20442;-77
2022/04/16 05:41:06;;;;;;;28.97;18.83;;;7.90;99.90;;;;;;5132895;27;20160;-77
2022/04/16 05:43:32;;;;;;;28.25;18.77;;;8.00;99.90;;;;;;5132221;27;20411;-77
2022/04/16 05:45:58;;;;;;;30.92;19.08;;;8.00;99.90;;;;;;5132772;27;20066;-77
2022/04/16 05:48:23;;;;;;;26.00;17.10;;;8.10;99.90;;;;;;5130928;27;20122;-76
2022/04/16 05:50:49;;;;;;;28.77;18.43;;;8.00;99.90;;;;;;5132360;27;20349;-77
2022/04/16 05:53:15;;;;;;;28.15;18.45;;;8.10;99.90;;;;;;5132300;27;20039;-77
2022/04/16 05:55:46;;;;;;;26.38;16.55;;;8.10;99.90;;;;;;5115371;27;20099;-77
2022/04/16 05:58:12;;;;;;;24.80;15.75;;;8.10;99.90;;;;;;5132436;27;20066;-77
2022/04/16 06:00:39;;;;;;;23.75;15.20;;;8.00;99.90;;;;;;5132227;27;20027;-77
2022/04/16 06:03:05;;;;;;;22.42;15.07;;;8.20;99.90;;;;;;5111191;27;20039;-78
2022/04/16 06:05:31;;;;;;;22.23;15.27;;;8.20;99.90;;;;;;5132766;27;20451;-77
2022/04/16 06:08:00;;;;;;;26.33;15.38;;;8.20;99.90;;;;;;5113477;27;20074;-77
2022/04/16 06:10:26;;;;;;;23.23;15.25;;;8.30;99.90;;;;;;5132334;27;20043;-77
2022/04/16 06:12:52;;;;;;;23.23;15.20;;;8.20;99.90;;;;;;5131858;27;20084;-76
2022/04/16 06:15:18;;;;;;;25.08;15.93;;;8.20;99.90;;;;;;5115241;27;20051;-77
2022/04/16 06:17:44;;;;;;;23.95;14.40;;;8.20;99.90;;;;;;5114996;27;20498;-77
2022/04/16 06:20:10;;;;;;;22.83;14.65;;;8.30;99.90;;;;;;5132114;27;20038;-76
2022/04/16 06:22:36;;;;;;;23.58;14.45;;;8.40;99.90;;;;;;5115120;27;20398;-76
2022/04/16 06:25:03;;;;;;;21.48;13.73;;;8.30;99.90;;;;;;5129117;27;20035;-77
2022/04/16 06:27:28;;;;;;;20.75;14.10;;;8.30;99.90;;;;;;5115162;27;20031;-77
2022/04/16 06:29:54;;;;;;;20.73;13.90;;;8.40;99.90;;;;;;5131840;27;20043;-77
2022/04/16 06:32:20;;;;;;;20.90;12.53;;;8.60;99.90;;;;;;5131583;27;20039;-76
2022/04/16 06:34:46;;;;;;;19.27;12.87;;;8.90;99.90;;;;;;5114099;27;20061;-75
2022/04/16 06:37:12;;;;;;;20.33;12.65;;;9.00;99.90;;;;;;5131577;27;20281;-75
2022/04/16 06:39:37;;;;;;;19.42;12.18;;;9.20;99.90;;;;;;5131476;27;20038;-75
2022/04/16 06:42:04;;;;;;;18.57;12.10;;;9.30;99.90;;;;;;5118292;27;20039;-76
2022/04/16 06:44:31;;;;;;;18.75;11.73;;;9.70;99.90;;;;;;5111143;28;20040;-77
2022/04/16 06:46:57;;;;;;;19.38;12.27;;;10.20;99.90;;;;;;5110578;27;20034;-76
2022/04/16 06:49:26;;;;;;;19.05;12.00;;;10.70;99.90;;;;;;5111286;28;20439;-76
2022/04/16 06:51:52;;;;;;;18.40;11.95;;;11.20;99.90;;;;;;5110050;28;20050;-76
2022/04/16 06:54:18;;;;;;;15.80;11.30;;;11.40;99.90;;;;;;5106535;27;20122;-76
2022/04/16 06:56:44;;;;;;;20.60;11.88;;;11.70;99.90;;;;;;5130857;27;20035;-77
2022/04/16 06:59:09;;;;;;;15.90;10.07;;;12.10;99.90;;;;;;5112053;27;20076;-76
2022/04/16 07:01:35;;;;;;;16.98;10.45;;;12.10;99.90;;;;;;5110759;28;20071;-76
2022/04/16 07:04:01;;;;;;;17.33;10.68;;;12.50;99.90;;;;;;5093411;28;20038;-76
2022/04/16 07:06:26;;;;;;;15.02;10.27;;;12.70;99.90;;;;;;5093746;28;20088;-75
2022/04/16 07:08:52;;;;;;;15.45;10.07;;;12.40;99.90;;;;;;5092752;28;20031;-76
2022/04/16 07:11:18;;;;;;;17.25;10.52;;;12.60;99.90;;;;;;5093556;28;20070;-76
2022/04/16 07:13:44;;;;;;;17.85;9.80;;;12.70;99.90;;;;;;5108363;28;20035;-75
2022/04/16 07:16:10;;;;;;;14.90;9.57;;;12.70;99.90;;;;;;5111871;28;20039;-75
2022/04/16 07:18:35;;;;;;;15.88;9.43;;;12.80;99.90;;;;;;5107778;28;20074;-76
2022/04/16 07:21:01;;;;;;;13.25;8.88;;;12.70;99.90;;;;;;5092824;28;20036;-75
2022/04/16 07:23:27;;;;;;;13.63;9.35;;;12.90;99.90;;;;;;5110419;28;20090;-76
2022/04/16 07:25:52;;;;;;;13.32;8.77;;;12.60;99.90;;;;;;5110140;28;20032;-75
2022/04/16 07:28:23;;;;;;;16.57;9.20;;;12.50;99.90;;;;;;5093637;28;20039;-75
2022/04/16 07:30:52;;;;;;;11.98;8.30;;;12.70;99.90;;;;;;5092270;27;20324;-75
2022/04/16 07:33:19;;;;;;;13.05;8.15;;;12.60;99.90;;;;;;5110970;27;20453;-74
2022/04/16 07:35:44;;;;;;;;;;;12.70;99.90;;;;;;5126509;27;20051;-75
2022/04/16 07:38:10;;;;;;;12.25;7.60;;;12.70;99.90;;;;;;5131566;27;19915;-75
2022/04/16 07:40:36;;;;;;;11.95;7.53;;;12.80;99.90;;;;;;5097190;27;20463;-75
2022/04/16 07:43:03;;;;;;;10.93;7.45;;;12.70;99.90;;;;;;5130773;27;20122;-76
2022/04/16 07:45:28;;;;;;;;;;;13.00;99.90;;;;;;5131734;27;20072;-76
2022/04/16 07:47:54;;;;;;;12.25;7.13;;;13.00;99.90;;;;;;5130725;27;19922;-76
2022/04/16 07:50:20;;;;;;;10.50;6.82;;;13.40;99.90;;;;;;5127553;27;20075;-75
2022/04/16 07:52:48;;;;;;;10.23;6.55;;;13.30;99.90;;;;;;5130741;27;20509;-76
2022/04/16 07:55:14;;;;;;;9.30;6.40;;;13.40;99.90;;;;;;5131412;27;20391;-76
2022/04/16 07:57:40;;;;;;;8.77;6.10;;;13.50;99.90;;;;;;5130961;27;20042;-76
2022/04/16 08:00:07;;;;;;;8.93;6.20;;;13.40;99.90;;;;;;5113310;27;20031;-75
2022/04/16 08:02:33;;;;;;;8.50;5.18;;;13.00;99.90;;;;;;5129892;27;20046;-75
2022/04/16 08:04:59;;;;;;;8.50;5.43;;;13.40;99.90;;;;;;5113422;27;20031;-76
2022/04/16 08:07:25;;;;;;;9.48;5.82;;;13.90;99.90;;;;;;5127397;27;20042;-76
2022/04/16 08:09:50;;;;;;;9.20;5.72;;;14.00;99.90;;;;;;5130337;27;20085;-76
2022/04/16 08:12:17;;;;;;;10.10;5.72;;;14.30;99.90;;;;;;5130668;27;20074;-76
2022/04/16 08:14:43;;;;;;;10.25;6.53;;;14.50;99.90;;;;;;5130871;27;20126;-76
2022/04/16 08:17:08;;;;;;;12.40;6.25;;;14.70;99.90;;;;;;5130186;27;20457;-75
2022/04/16 08:19:34;;;;;;;9.30;5.80;;;14.80;99.90;;;;;;5113747;27;20491;-75
2022/04/16 08:22:00;;;;;;;8.80;5.63;;;14.70;99.90;;;;;;5130430;27;20035;-76
2022/04/16 08:26:57;;;;;;;6.88;4.20;;;15.10;99.90;;;;;;5130474;27;20498;-75
2022/04/16 08:29:23;;;;;;;5.45;3.38;;;15.10;99.90;;;;;;5130654;27;20054;-75
2022/04/16 08:31:49;;;;;;;4.05;2.50;;;15.00;99.90;;;;;;5130308;27;20043;-76
2022/04/16 08:34:15;;;;;;;4.97;2.60;;;14.90;99.60;;;;;;5130740;27;20176;-75
2022/04/16 08:36:41;;;;;;;4.82;2.40;;;15.10;99.30;;;;;;5130549;27;20126;-75
2022/04/16 08:39:06;;;;;;;4.25;1.90;;;15.40;99.70;;;;;;5113180;27;20031;-75
2022/04/16 08:41:32;;;;;;;4.43;2.00;;;15.60;98.80;;;;;;5110968;27;20045;-76
2022/04/16 08:43:58;;;;;;;6.13;1.80;;;15.30;96.90;;;;;;5110049;28;20491;-77
2022/04/16 08:46:27;;;;;;;3.40;1.77;;;15.40;95.70;;;;;;5109982;28;20043;-76
2022/04/16 08:48:54;;;;;;;3.10;1.95;;;15.40;96.70;;;;;;5109272;28;20076;-76
2022/04/16 08:51:20;;;;;;;3.88;1.92;;;15.30;95.00;;;;;;5109546;28;20039;-76
2022/04/16 08:53:46;;;;;;;2.42;1.40;;;15.40;93.90;;;;;;5092543;28;20103;-75
2022/04/16 08:56:11;;;;;;;2.85;1.67;;;16.10;94.10;;;;;;5092553;28;20357;-76
2022/04/16 08:58:38;;;;;;;3.45;1.85;;;16.00;93.90;;;;;;5109704;27;20483;-76
2022/04/16 09:01:04;;;;;;;3.22;1.85;;;16.00;92.50;;;;;;5108872;28;20032;-76
2022/04/16 09:03:34;;;;;;;4.10;1.40;;;15.80;92.50;;;;;;5109508;28;20088;-76
2022/04/16 09:06:00;;;;;;;3.20;1.40;;;15.80;92.30;;;;;;5106434;28;20119;-76
2022/04/16 09:08:30;;;;;;;3.35;1.52;;;16.00;91.40;;;;;;5109105;28;20473;-76
2022/04/16 09:11:11;;;;;;;2.10;1.13;;;16.00;90.10;;;;;;5108965;28;20095;-74
2022/04/16 09:13:56;;;;;;;3.90;1.10;;;16.50;88.50;;;;;;5109032;28;20087;-75
2022/04/16 09:16:22;;;;;;;3.08;1.30;;;16.60;86.10;;;;;;5092360;28;20038;-74
2022/04/16 09:18:52;;;;;;;2.17;0.90;;;16.60;87.60;;;;;;5110687;28;20495;-75
2022/04/16 09:21:20;;;;;;;2.10;1.38;;;16.80;87.80;;;;;;5108639;28;20035;-75
2022/04/16 09:23:52;;;;;;;2.15;1.17;;;16.60;86.00;;;;;;5092432;28;20039;-74
2022/04/16 09:26:38;;;;;;;2.60;1.20;;;16.80;86.50;;;;;;5109361;28;20051;-75
2022/04/16 09:29:08;;;;;;;2.55;1.30;;;16.90;88.00;;;;;;5109335;28;20391;-75
2022/04/16 09:31:39;;;;;;;2.95;0.98;;;17.10;85.50;;;;;;5106719;28;20118;-75
2022/04/16 09:34:05;;;;;;;4.38;1.10;;;17.00;87.20;;;;;;5108785;28;20096;-76
2022/04/16 09:36:36;;;;;;;2.40;1.00;;;17.40;84.90;;;;;;5127434;28;20046;-76
2022/04/16 09:39:07;;;;;;;2.20;1.20;;;17.60;82.50;;;;;;5129402;28;20406;-75
2022/04/16 09:41:34;;;;;;;2.05;1.08;;;18.10;81.40;;;;;;5129849;27;20495;-76
2022/04/16 09:44:01;;;;;;;4.22;1.48;;;18.20;80.90;;;;;;5129434;28;20495;-75
2022/04/16 09:46:28;;;;;;;1.77;1.20;;;18.60;81.20;;;;;;5129747;27;20478;-75
2022/04/16 09:49:02;;;;;;;2.22;0.93;;;18.40;80.70;;;;;;5126567;27;20061;-75
2022/04/16 09:51:33;;;;;;;4.30;1.40;;;18.40;81.40;;;;;;5129553;28;20064;-76
2022/04/16 09:54:03;;;;;;;2.72;1.20;;;18.40;81.00;;;;;;5129476;28;20050;-75
2022/04/16 09:56:33;;;;;;;3.85;1.00;;;17.70;81.10;;;;;;5129371;27;20035;-75
2022/04/16 09:59:02;;;;;;;2.10;1.10;;;18.30;81.30;;;;;;5112317;28;20187;-75
2022/04/16 10:01:28;;;;;;;2.03;1.00;;;18.70;80.30;;;;;;5129340;28;20050;-76
2022/04/16 10:03:55;;;;;;;1.38;0.90;;;18.70;76.50;;;;;;5129039;27;20043;-76
2022/04/16 10:06:21;;;;;;;;;;;19.00;77.90;;;;;;5127703;28;20039;-74
2022/04/16 10:08:49;;;;;;;2.75;0.95;;;18.30;77.20;;;;;;5112466;28;20325;-74
2022/04/16 10:11:42;;;;;;;3.08;1.13;;;17.80;77.40;;;;;;5095200;27;20046;-75
2022/04/16 10:14:38;;;;;;;1.60;0.88;;;18.20;76.20;;;;;;5130251;27;20031;-75
2022/04/16 10:17:19;;;;;;;3.03;0.80;;;18.10;76.00;;;;;;5089952;27;20040;-75
2022/04/16 10:19:48;;;;;;;1.30;0.50;;;18.90;72.60;;;;;;5129213;27;20231;-75
2022/04/16 10:22:25;;;;;;;1.92;0.68;;;18.60;70.20;;;;;;5128826;28;20103;-76
2022/04/16 10:24:58;;;;;;;1.48;0.57;;;18.50;70.80;;;;;;5127843;27;20501;-75
2022/04/16 10:27:27;;;;;;;2.53;0.70;;;18.80;69.70;;;;;;5132660;27;20039;-75
2022/04/16 10:29:54;;;;;;;1.60;0.60;;;19.40;71.00;;;;;;5133412;27;20534;-75
2022/04/16 10:32:20;;;;;;;2.47;0.77;;;19.70;69.70;;;;;;5116059;27;20080;-75
2022/04/16 10:34:46;;;;;;;1.50;0.70;;;19.20;72.00;;;;;;5139167;27;20077;-75
2022/04/16 10:37:24;;;;;;;4.00;0.60;;;19.30;72.30;;;;;;5139386;27;20493;-75
2022/04/16 10:39:53;;;;;;;1.92;0.60;;;19.60;71.40;;;;;;5156115;27;20124;-75
2022/04/16 10:42:32;;;;;;;0.73;0.50;;;19.40;68.40;;;;;;5169781;27;20034;-75
2022/04/16 10:45:08;;;;;;;1.73;0.50;;;20.10;68.40;;;;;;5137648;27;20145;-75
2022/04/16 10:47:38;;;;;;;1.10;0.60;;;20.30;66.50;;;;;;5157166;27;20525;-75
2022/04/16 10:50:12;;;;;;;1.00;0.52;;;19.80;68.00;;;;;;5156288;27;20162;-75
2022/04/16 10:52:37;;;;;;;2.00;0.40;;;19.30;66.90;;;;;;5156822;27;20393;-76
2022/04/16 10:55:08;;;;;;;1.10;0.60;;;19.50;66.70;;;;;;5156269;27;20046;-75
2022/04/16 10:57:34;;;;;;;1.08;0.70;;;19.20;66.10;;;;;;5142954;27;20492;-74
2022/04/16 11:00:12;;;;;;;;;;;19.50;65.00;;;;;;5136088;27;20035;-76
2022/04/16 11:02:37;;;;;;;;;;;19.50;66.10;;;;;;5136495;27;20298;-76
2022/04/16 11:05:06;;;;;;;1.33;0.52;;;19.90;65.50;;;;;;5135350;27;19915;-76
2022/04/16 11:07:35;;;;;;;1.40;0.60;;;20.20;64.80;;;;;;5135980;27;20030;-74
2022/04/16 11:10:06;;;;;;;1.17;0.40;;;20.60;64.90;;;;;;5135374;27;20074;-75
2022/04/16 11:12:32;;;;;;;0.77;0.57;;;20.30;62.70;;;;;;5137471;27;20031;-75
2022/04/16 11:14:59;;;;;;;1.13;0.55;;;20.20;62.90;;;;;;5135576;27;20121;-75
2022/04/16 11:17:24;;;;;;;2.38;0.35;;;19.90;64.80;;;;;;5135700;27;20142;-75
2022/04/16 11:20:05;;;;;;;1.38;0.35;;;19.80;61.60;;;;;;5135094;27;20358;-75
2022/04/16 11:22:32;;;;;;;3.42;0.60;;;19.50;63.70;;;;;;5134732;27;20073;-76
2022/04/16 11:24:58;;;;;;;1.55;0.40;;;19.80;64.60;;;;;;5134854;27;20046;-75
2022/04/16 11:36:01;;;;;;;1.45;0.47;;;20.00;60.40;;;;;;5134767;27;20054;-75
2022/04/16 11:38:32;;;;;;;2.20;0.57;;;20.20;59.40;;;;;;5134839;27;20123;-75
2022/04/16 11:40:59;;;;;;;1.17;0.43;;;19.90;60.50;;;;;;5131357;27;20026;-75
2022/04/16 11:43:28;;;;;;;0.82;0.52;;;19.60;61.70;;;;;;5155671;27;20042;-75
2022/04/16 11:45:55;;;;;;;1.17;0.50;;;20.40;62.30;;;;;;5151180;27;20038;-75
2022/04/16 11:48:22;;;;;;;2.28;0.70;;;20.40;61.40;;;;;;5132340;27;20046;-74
2022/04/16 11:50:48;;;;;;;1.10;0.40;;;19.90;61.70;;;;;;5134653;27;20038;-75
2022/04/16 11:53:14;;;;;;;2.55;0.52;;;20.10;61.60;;;;;;5133641;27;20103;-75
2022/04/16 11:55:47;;;;;;;1.55;0.50;;;20.30;60.80;;;;;;5117648;27;20039;-75
2022/04/16 11:58:13;;;;;;;1.52;0.50;;;20.70;60.90;;;;;;5134382;27;20134;-75
2022/04/16 12:00:55;;;;;;;1.30;0.40;;;20.60;60.20;;;;;;5135049;27;20508;-75
2022/04/16 12:03:41;;;;;;;0.90;0.40;;;20.20;61.00;;;;;;5134170;27;20386;-75
2022/04/16 12:06:11;;;;;;;1.63;0.60;;;20.20;60.40;;;;;;5131166;27;20490;-77
2022/04/16 12:08:39;;;;;;;1.80;0.45;;;20.20;60.40;;;;;;5116910;27;20034;-76
2022/04/16 12:11:06;;;;;;;2.78;0.50;;;19.80;59.40;;;;;;5133115;27;20034;-76
2022/04/16 12:13:36;;;;;;;2.38;0.47;;;20.30;60.90;;;;;;5133932;27;20038;-75
2022/04/16 12:16:07;;;;;;;1.58;0.60;;;20.80;60.20;;;;;;5133227;27;20031;-75
2022/04/16 12:18:53;;;;;;;0.90;0.50;;;20.20;59.40;;;;;;5131515;27;20053;-74
2022/04/16 12:21:19;;;;;;;1.30;0.57;;;20.20;60.80;;;;;;5133603;27;20043;-74
2022/04/16 12:23:45;;;;;;;1.25;0.50;;;20.60;59.60;;;;;;5131759;27;20042;-76
2022/04/16 12:26:13;;;;;;;1.30;0.40;;;21.10;59.80;;;;;;5132982;27;20043;-76
2022/04/16 12:28:47;;;;;;;1.52;0.70;;;21.40;60.50;;;;;;5152237;27;20038;-76
2022/04/16 12:31:23;;;;;;;1.48;0.47;;;21.40;59.40;;;;;;5133517;27;20042;-77
2022/04/16 12:33:49;;;;;;;3.90;0.50;;;21.00;59.20;;;;;;5133346;27;20117;-77
2022/04/16 12:36:15;;;;;;;2.08;0.60;;;20.80;59.20;;;;;;5133061;27;20557;-76
2022/04/16 12:38:42;;;;;;;1.92;0.70;;;20.90;58.80;;;;;;5132608;27;20510;-74
2022/04/16 12:41:09;;;;;;;1.60;0.52;;;21.10;58.40;;;;;;5167216;27;20078;-77
2022/04/16 12:43:39;;;;;;;1.80;0.57;;;21.10;58.70;;;;;;5133030;27;20050;-78
2022/04/16 12:46:04;;;;;;;1.95;0.73;;;21.20;58.30;;;;;;5115891;27;20494;-77
2022/04/16 12:48:30;;;;;;;1.65;0.40;;;21.50;58.10;;;;;;5132502;27;20062;-77
2022/04/16 12:50:56;;;;;;;3.30;0.70;;;21.30;59.10;;;;;;5133249;27;20060;-75
2022/04/16 12:53:21;;;;;;;0.80;0.40;;;20.50;58.20;;;;;;5132537;27;20521;-75
2022/04/16 12:55:47;;;;;;;1.80;0.80;;;19.90;59.20;;;;;;5132654;27;20042;-77
2022/04/16 12:58:13;;;;;;;1.17;0.70;;;19.90;60.50;;;;;;5131492;27;20042;-77
2022/04/16 13:00:39;;;;;;;3.00;0.65;;;20.40;59.70;;;;;;5115585;27;20035;-77
2022/04/16 13:03:06;;;;;;;;;;;20.90;59.60;;;;;;5132788;27;20031;-77
2022/04/16 13:05:32;;;;;;;1.70;0.60;;;20.60;57.10;;;;;;5132880;27;19961;-78
2022/04/16 13:07:59;;;;;;;;;;;20.20;58.30;;;;;;5133697;27;20438;-78
2022/04/16 13:10:26;;;;;;;1.50;0.70;;;20.10;58.50;;;;;;5115262;27;19930;-77